Time;durP1;ratioP1;P1;durP2;ratioP2;P2;SDS_P1;SDS_P2;PMS_P1;PMS_P2;Temp;Humidity;BMP_temperature;BMP_pressure;BME280_temperature;BME280_humidity;BME280_pressure;Samples;Min_cycle;Max_cycle;Signal;HPM_P1;HPM_P2
2023/05/13 00:00:16;;;;;;;14.15;12.77;;;9.80;99.90;;;;;;5067117;28;20032;-77
2023/05/13 00:02:50;;;;;;;16.83;15.43;;;9.80;99.90;;;;;;5073523;28;20516;-77
2023/05/13 00:05:18;;;;;;;16.73;15.32;;;9.70;99.90;;;;;;5048620;28;20089;-77
2023/05/13 00:07:44;;;;;;;15.85;14.48;;;9.70;99.90;;;;;;5055183;28;20078;-77
2023/05/13 00:10:13;;;;;;;17.38;15.80;;;9.60;99.90;;;;;;5073878;28;20071;-77
2023/05/13 00:12:39;;;;;;;16.40;15.00;;;9.60;99.90;;;;;;5059160;28;20432;-77
2023/05/13 00:15:08;;;;;;;16.70;15.35;;;9.60;99.90;;;;;;5059921;28;20071;-77
2023/05/13 00:17:34;;;;;;;17.13;15.73;;;9.50;99.90;;;;;;5055182;28;20044;-77
2023/05/13 00:20:05;;;;;;;18.50;17.08;;;9.50;99.90;;;;;;5056359;28;20047;-77
2023/05/13 00:22:45;;;;;;;17.98;16.58;;;9.50;99.90;;;;;;5057716;28;20032;-77
2023/05/13 00:25:19;;;;;;;19.23;17.60;;;9.50;99.90;;;;;;5057508;28;20032;-77
2023/05/13 00:27:48;;;;;;;18.13;16.70;;;9.50;99.90;;;;;;5062089;28;20063;-77
2023/05/13 00:30:14;;;;;;;18.83;17.33;;;9.40;99.90;;;;;;5061412;28;20288;-77
2023/05/13 00:35:34;;;;;;;21.08;19.48;;;9.30;99.90;;;;;;5077348;28;20556;-77
2023/05/13 00:38:00;;;;;;;17.30;15.68;;;9.20;99.90;;;;;;5055578;28;20076;-77
2023/05/13 00:40:26;;;;;;;20.98;18.85;;;9.20;99.90;;;;;;5064746;28;20109;-77
2023/05/13 00:43:03;;;;;;;20.17;18.33;;;9.20;99.90;;;;;;5067691;28;20040;-77
2023/05/13 00:45:36;;;;;;;16.42;14.75;;;9.20;99.90;;;;;;5056096;28;20125;-77
2023/05/13 00:48:13;;;;;;;21.65;19.70;;;9.20;99.90;;;;;;5066940;28;20040;-77
2023/05/13 00:50:49;;;;;;;19.50;17.90;;;9.20;99.90;;;;;;5072905;28;20055;-77
2023/05/13 00:53:18;;;;;;;18.17;16.48;;;9.20;99.90;;;;;;5077300;28;20076;-77
2023/05/13 00:55:45;;;;;;;17.35;15.80;;;9.20;99.90;;;;;;5052729;28;20066;-77
2023/05/13 00:58:11;;;;;;;18.02;16.48;;;9.20;99.90;;;;;;5061188;28;20508;-77
2023/05/13 01:01:13;;;;;;;22.45;20.48;;;9.20;99.90;;;;;;5063026;28;20390;-77
2023/05/13 01:03:44;;;;;;;19.15;17.52;;;9.20;99.90;;;;;;5060313;28;20036;-77
2023/05/13 01:06:15;;;;;;;19.70;17.80;;;9.20;99.90;;;;;;5058554;28;20067;-77
2023/05/13 01:09:11;;;;;;;20.52;18.63;;;9.20;99.90;;;;;;5063556;28;20118;-77
2023/05/13 01:11:49;;;;;;;20.85;19.10;;;9.20;99.90;;;;;;5058722;28;20473;-77
2023/05/13 01:14:31;;;;;;;20.52;18.77;;;9.10;99.90;;;;;;5064871;28;20056;-77
2023/05/13 01:17:12;;;;;;;22.15;20.20;;;9.10;99.90;;;;;;5058179;28;20040;-77
2023/05/13 01:19:56;;;;;;;21.73;19.85;;;9.00;99.90;;;;;;5067741;28;20063;-77
2023/05/13 01:22:36;;;;;;;18.83;17.02;;;9.10;99.90;;;;;;5052769;28;20070;-77
2023/05/13 01:25:08;;;;;;;21.27;19.17;;;9.00;99.90;;;;;;5055976;28;20041;-77
2023/05/13 01:27:39;;;;;;;19.52;18.02;;;9.10;99.90;;;;;;5074759;28;20382;-77
2023/05/13 01:30:06;;;;;;;24.13;21.90;;;9.00;99.90;;;;;;5067944;28;20058;-77
2023/05/13 01:32:42;;;;;;;23.25;21.25;;;9.00;99.90;;;;;;5059633;28;20461;-77
2023/05/13 01:35:14;;;;;;;;;;;9.00;99.90;;;;;;5059438;28;20056;-77
2023/05/13 01:37:49;;;;;;;25.80;23.80;;;9.00;99.90;;;;;;5056390;28;19975;-77
2023/05/13 01:40:30;;;;;;;25.60;23.50;;;8.90;99.90;;;;;;5060055;28;20062;-77
2023/05/13 01:43:01;;;;;;;25.30;23.35;;;8.90;99.90;;;;;;5058598;28;20581;-77
2023/05/13 01:45:35;;;;;;;22.95;21.05;;;8.80;99.90;;;;;;5066085;28;20047;-77
2023/05/13 01:48:13;;;;;;;23.42;21.55;;;8.80;99.90;;;;;;5059082;28;20072;-77
2023/05/13 01:50:45;;;;;;;23.95;22.17;;;8.80;99.90;;;;;;5056319;28;20082;-77
2023/05/13 01:53:29;;;;;;;25.73;23.75;;;8.80;99.90;;;;;;5076555;28;20525;-77
2023/05/13 01:55:58;;;;;;;25.48;23.38;;;8.90;99.90;;;;;;5058449;28;20036;-77
2023/05/13 01:58:32;;;;;;;25.65;23.35;;;8.80;99.90;;;;;;5066569;28;20032;-77
2023/05/13 02:01:02;;;;;;;24.83;23.02;;;8.80;99.90;;;;;;5064187;28;20044;-77
2023/05/13 02:03:37;;;;;;;27.23;25.13;;;8.70;99.90;;;;;;5055353;28;20039;-77
2023/05/13 02:06:17;;;;;;;35.28;31.90;;;8.80;99.90;;;;;;5062866;28;20125;-77
2023/05/13 02:08:49;;;;;;;28.98;26.58;;;8.70;99.90;;;;;;5067786;28;20389;-77
2023/05/13 02:11:35;;;;;;;27.83;25.63;;;8.60;99.90;;;;;;5075485;28;20490;-77
2023/05/13 02:14:08;;;;;;;29.33;27.02;;;8.60;99.90;;;;;;5060429;28;20109;-77
2023/05/13 02:16:36;;;;;;;28.05;25.70;;;8.60;99.90;;;;;;5056622;28;20082;-77
2023/05/13 02:19:07;;;;;;;22.38;20.58;;;8.60;99.90;;;;;;5062950;28;20478;-77
2023/05/13 02:21:50;;;;;;;29.10;26.73;;;8.60;99.90;;;;;;5058683;28;20039;-77
2023/05/13 02:24:34;;;;;;;26.70;24.65;;;8.60;99.90;;;;;;5059269;28;20046;-77
2023/05/13 02:27:11;;;;;;;26.48;24.27;;;8.60;99.90;;;;;;5057254;28;20071;-77
2023/05/13 02:29:48;;;;;;;28.60;26.30;;;8.60;99.90;;;;;;5057483;28;20036;-77
2023/05/13 02:32:17;;;;;;;29.92;27.50;;;8.50;99.90;;;;;;5058217;28;20071;-77
2023/05/13 02:34:55;;;;;;;28.30;26.05;;;8.50;99.90;;;;;;5058922;28;20447;-77
2023/05/13 02:37:23;;;;;;;29.00;26.70;;;8.60;99.90;;;;;;5064346;28;20524;-77
2023/05/13 02:40:15;;;;;;;28.45;26.33;;;8.60;99.90;;;;;;5065850;28;20046;-77
2023/05/13 02:42:57;;;;;;;32.25;29.85;;;8.60;99.90;;;;;;5062624;28;20035;-77
2023/05/13 02:45:26;;;;;;;25.27;23.17;;;8.50;99.90;;;;;;5057711;28;20036;-77
2023/05/13 02:48:02;;;;;;;26.30;24.30;;;8.50;99.90;;;;;;5079263;28;20461;-77
2023/05/13 02:50:39;;;;;;;29.65;27.40;;;8.50;99.90;;;;;;5074573;28;20032;-76
2023/05/13 02:53:08;;;;;;;25.40;23.60;;;8.60;99.90;;;;;;5065048;28;20117;-77
2023/05/13 02:55:53;;;;;;;26.55;24.55;;;8.60;99.90;;;;;;5058432;28;20139;-76
2023/05/13 02:58:30;;;;;;;30.55;28.05;;;8.70;99.90;;;;;;5064367;28;20043;-77
2023/05/13 03:01:12;;;;;;;24.45;22.40;;;8.70;99.90;;;;;;5053976;28;20563;-77
2023/05/13 03:04:04;;;;;;;23.08;21.13;;;8.70;99.90;;;;;;5068740;28;20047;-77
2023/05/13 03:06:52;;;;;;;26.30;24.05;;;8.70;99.90;;;;;;5054956;28;20449;-77
2023/05/13 03:09:21;;;;;;;23.50;21.52;;;8.80;99.90;;;;;;5076484;28;20054;-77
2023/05/13 03:12:03;;;;;;;24.30;22.40;;;8.90;99.90;;;;;;5055465;28;20186;-77
2023/05/13 03:15:09;;;;;;;22.63;20.80;;;8.80;99.90;;;;;;5063307;28;20051;-77
2023/05/13 03:18:00;;;;;;;23.50;21.60;;;8.90;99.90;;;;;;5052625;28;20048;-77
2023/05/13 03:20:45;;;;;;;24.92;22.92;;;8.90;99.90;;;;;;5058030;28;20127;-76
2023/05/13 03:23:13;;;;;;;27.00;24.88;;;8.90;99.90;;;;;;5056481;28;20044;-78
2023/05/13 03:25:44;;;;;;;30.58;28.23;;;9.00;99.90;;;;;;5053656;28;20137;-77
2023/05/13 03:28:16;;;;;;;27.90;25.80;;;9.00;99.90;;;;;;5063481;28;20699;-76
2023/05/13 03:30:46;;;;;;;24.90;22.90;;;9.00;99.90;;;;;;5053271;28;20098;-76
2023/05/13 03:33:22;;;;;;;28.40;26.05;;;8.90;99.90;;;;;;5055813;28;20039;-76
2023/05/13 03:36:06;;;;;;;27.23;25.13;;;8.80;99.90;;;;;;5064234;28;20032;-77
2023/05/13 03:38:34;;;;;;;24.45;22.45;;;8.70;99.90;;;;;;5066434;28;20048;-77
2023/05/13 03:41:04;;;;;;;27.33;25.17;;;8.80;99.90;;;;;;5073457;28;20038;-77
2023/05/13 03:43:42;;;;;;;26.95;24.80;;;8.80;99.90;;;;;;5062208;28;20046;-77
2023/05/13 03:46:26;;;;;;;29.05;26.77;;;8.80;99.90;;;;;;5057072;28;20071;-77
2023/05/13 03:48:56;;;;;;;31.20;28.85;;;8.70;99.90;;;;;;5055041;28;20048;-77
2023/05/13 03:51:37;;;;;;;30.27;27.77;;;8.70;99.90;;;;;;5074059;28;20058;-77
2023/05/13 03:54:14;;;;;;;36.75;33.58;;;8.60;99.90;;;;;;5074872;28;20105;-77
2023/05/13 03:56:52;;;;;;;34.92;32.20;;;8.60;99.90;;;;;;5072518;28;20047;-77
2023/05/13 03:59:34;;;;;;;37.03;33.97;;;8.60;99.90;;;;;;5053535;28;20032;-77
2023/05/13 04:02:09;;;;;;;37.47;34.47;;;8.50;99.90;;;;;;5060868;28;20485;-76
2023/05/13 04:04:50;;;;;;;38.38;35.42;;;8.40;99.90;;;;;;5070814;28;20044;-77
2023/05/13 04:07:26;;;;;;;41.58;38.28;;;8.40;99.90;;;;;;5067171;28;20031;-77
2023/05/13 04:10:10;;;;;;;38.20;35.10;;;8.40;99.90;;;;;;5058537;28;20508;-76
2023/05/13 04:12:39;;;;;;;35.25;32.08;;;8.30;99.90;;;;;;5069406;28;20477;-77
2023/05/13 04:15:14;;;;;;;34.23;31.53;;;8.30;99.90;;;;;;5040336;28;20049;-77
2023/05/13 04:17:54;;;;;;;33.72;31.13;;;8.40;99.90;;;;;;5066022;28;20036;-77
2023/05/13 04:20:32;;;;;;;39.13;36.05;;;8.30;99.90;;;;;;5068310;28;20024;-77
2023/05/13 04:23:00;;;;;;;35.22;32.38;;;8.40;99.90;;;;;;5059874;28;20501;-77
2023/05/13 04:25:39;;;;;;;32.15;29.63;;;8.40;99.90;;;;;;5061169;28;20043;-77
2023/05/13 04:28:15;;;;;;;36.33;33.22;;;8.40;99.90;;;;;;5059418;28;20082;-77
2023/05/13 04:30:57;;;;;;;37.50;34.47;;;8.50;99.90;;;;;;5090627;28;20040;-77
2023/05/13 04:33:29;;;;;;;48.97;44.75;;;8.50;99.90;;;;;;5065513;28;20073;-77
2023/05/13 04:36:05;;;;;;;39.22;36.00;;;8.50;99.90;;;;;;5059085;28;20032;-77
2023/05/13 04:38:40;;;;;;;36.55;33.55;;;8.60;99.90;;;;;;5062250;28;20040;-76
2023/05/13 04:41:11;;;;;;;42.63;39.15;;;8.70;99.90;;;;;;5069713;28;20277;-77
2023/05/13 04:43:46;;;;;;;40.53;37.05;;;8.90;99.90;;;;;;5077223;28;20040;-77
2023/05/13 04:46:17;;;;;;;38.17;35.13;;;9.20;99.90;;;;;;5076873;28;20082;-77
2023/05/13 04:48:48;;;;;;;31.92;29.45;;;9.70;99.90;;;;;;5064999;28;20032;-77
2023/05/13 04:51:31;;;;;;;32.78;30.23;;;10.00;99.90;;;;;;5057043;28;20032;-77
2023/05/13 04:53:57;;;;;;;33.15;30.55;;;10.10;99.90;;;;;;5040160;28;20041;-77
2023/05/13 04:56:37;;;;;;;33.60;30.90;;;10.10;99.90;;;;;;5039470;28;20054;-77
2023/05/13 04:59:05;;;;;;;29.55;26.98;;;10.10;99.90;;;;;;5050719;28;20037;-77
2023/05/13 05:01:49;;;;;;;25.88;23.77;;;10.30;99.90;;;;;;5059947;28;20364;-77
2023/05/13 05:04:30;;;;;;;24.92;22.65;;;10.90;99.90;;;;;;5077570;28;20093;-77
2023/05/13 05:07:09;;;;;;;22.20;20.38;;;11.60;99.90;;;;;;5057196;28;20047;-77
2023/05/13 05:09:42;;;;;;;19.35;17.73;;;12.30;99.90;;;;;;5068245;28;20040;-77
2023/05/13 05:12:11;;;;;;;20.77;19.08;;;12.80;99.90;;;;;;5076251;28;20416;-77
2023/05/13 05:15:00;;;;;;;17.83;16.42;;;13.20;99.90;;;;;;5076116;28;20792;-76
2023/05/13 05:17:38;;;;;;;18.63;17.20;;;13.50;99.90;;;;;;5066727;28;20071;-77
2023/05/13 05:20:35;;;;;;;18.70;17.02;;;13.90;99.90;;;;;;5065058;28;20055;-77
2023/05/13 05:23:04;;;;;;;17.02;15.63;;;14.30;99.90;;;;;;5058160;28;20044;-77
2023/05/13 05:25:41;;;;;;;16.73;15.07;;;14.50;99.90;;;;;;5062916;28;20481;-77
2023/05/13 05:28:21;;;;;;;16.58;15.13;;;14.80;99.90;;;;;;5063979;28;20043;-77
2023/05/13 05:31:00;;;;;;;16.60;15.10;;;14.90;99.90;;;;;;5068456;28;20089;-77
2023/05/13 05:33:28;;;;;;;17.40;15.88;;;15.00;99.90;;;;;;5076828;28;20109;-77
2023/05/13 05:35:54;;;;;;;17.02;15.60;;;15.00;99.90;;;;;;5074308;28;20036;-76
2023/05/13 05:38:42;;;;;;;17.83;16.42;;;14.90;99.90;;;;;;5062327;28;20032;-77
2023/05/13 05:41:20;;;;;;;17.15;15.68;;;14.50;99.90;;;;;;5062438;28;20113;-77
2023/05/13 05:43:55;;;;;;;17.27;15.75;;;14.00;99.90;;;;;;5076551;28;20032;-77
2023/05/13 05:46:24;;;;;;;18.65;17.02;;;13.60;99.90;;;;;;5050151;28;20048;-77
2023/05/13 05:48:55;;;;;;;19.17;17.63;;;13.30;99.90;;;;;;5063416;28;20044;-77
2023/05/13 05:51:23;;;;;;;19.25;17.77;;;13.10;99.90;;;;;;5058848;28;20039;-77
2023/05/13 05:54:04;;;;;;;18.58;17.05;;;12.90;99.90;;;;;;5059387;28;20044;-77
2023/05/13 05:56:31;;;;;;;20.15;18.45;;;12.80;99.90;;;;;;5056852;28;20068;-76
2023/05/13 05:59:02;;;;;;;20.60;18.58;;;12.80;99.90;;;;;;5066822;28;20070;-77
2023/05/13 06:01:42;;;;;;;21.10;19.30;;;12.70;99.90;;;;;;5059074;28;20036;-77
2023/05/13 06:04:13;;;;;;;20.13;18.42;;;12.70;99.90;;;;;;5068030;28;20052;-77
2023/05/13 06:06:55;;;;;;;19.67;17.60;;;12.80;99.90;;;;;;5063517;28;20036;-77
2023/05/13 06:09:24;;;;;;;19.38;17.65;;;12.90;99.90;;;;;;5063721;28;20048;-76
2023/05/13 06:12:04;;;;;;;19.35;17.73;;;13.00;99.90;;;;;;5058660;28;20486;-77
2023/05/13 06:14:30;;;;;;;19.88;18.10;;;13.20;99.90;;;;;;5056819;28;20076;-77
2023/05/13 06:16:56;;;;;;;20.35;18.45;;;13.20;99.90;;;;;;5072585;28;20490;-76
2023/05/13 06:19:30;;;;;;;18.73;17.08;;;13.30;99.90;;;;;;5069362;28;20093;-76
2023/05/13 06:22:01;;;;;;;19.13;17.55;;;13.40;99.90;;;;;;5075168;28;20052;-77
2023/05/13 06:24:33;;;;;;;18.33;16.73;;;13.40;99.90;;;;;;5074992;28;20046;-77
2023/05/13 06:27:07;;;;;;;17.92;16.35;;;13.60;99.90;;;;;;5054810;28;20486;-77
2023/05/13 06:29:48;;;;;;;17.77;16.17;;;13.60;99.90;;;;;;5045584;28;20494;-77
2023/05/13 06:32:20;;;;;;;17.90;16.30;;;13.60;99.90;;;;;;5051115;28;20054;-76
2023/05/13 06:34:50;;;;;;;17.55;15.95;;;13.70;99.90;;;;;;5070320;28;20278;-77
2023/05/13 06:37:18;;;;;;;17.60;16.05;;;13.60;99.90;;;;;;5071424;28;20083;-78
2023/05/13 06:40:01;;;;;;;17.80;16.15;;;13.80;99.90;;;;;;5081829;28;20072;-77
2023/05/13 06:42:42;;;;;;;17.38;15.77;;;13.80;99.90;;;;;;5056911;28;20044;-75
2023/05/13 06:45:14;;;;;;;16.35;14.80;;;13.80;99.90;;;;;;5062829;28;20040;-76
2023/05/13 06:50:18;;;;;;;17.63;15.82;;;13.70;99.90;;;;;;4840391;26;20422;-76
2023/05/13 06:52:51;;;;;;;15.95;14.60;;;13.80;99.90;;;;;;5016742;28;20499;-77
2023/05/13 06:55:17;;;;;;;15.73;14.32;;;13.90;99.90;;;;;;5016663;28;20149;-76
2023/05/13 06:57:46;;;;;;;15.70;14.25;;;13.90;99.90;;;;;;5033788;28;20033;-76
2023/05/13 07:00:20;;;;;;;14.88;13.48;;;14.00;99.90;;;;;;5015334;28;20459;-75
2023/05/13 07:02:45;;;;;;;15.05;13.68;;;14.10;99.90;;;;;;5019406;22;20096;-77
2023/05/13 07:05:11;;;;;;;14.20;12.80;;;14.10;99.90;;;;;;5011371;28;20045;-78
2023/05/13 07:07:37;;;;;;;14.50;13.10;;;14.20;99.90;;;;;;4992883;28;20049;-78
2023/05/13 07:10:03;;;;;;;14.60;13.10;;;14.30;99.90;;;;;;4991464;28;20038;-78
2023/05/13 07:12:29;;;;;;;14.30;12.82;;;14.50;99.90;;;;;;4975475;28;20463;-78
2023/05/13 07:14:54;;;;;;;13.75;12.35;;;14.60;99.90;;;;;;4975582;28;20050;-78
2023/05/13 07:17:20;;;;;;;14.32;12.93;;;14.70;99.90;;;;;;4973888;28;20381;-78
2023/05/13 07:19:46;;;;;;;14.38;13.05;;;14.80;99.90;;;;;;4972205;28;20072;-78
2023/05/13 07:22:12;;;;;;;13.20;12.10;;;14.90;99.90;;;;;;4991328;28;20042;-78
2023/05/13 07:24:37;;;;;;;13.65;12.45;;;14.90;99.90;;;;;;4989308;28;20041;-78
2023/05/13 07:27:03;;;;;;;13.65;12.27;;;14.90;99.90;;;;;;4974902;28;20042;-78
2023/05/13 07:29:31;;;;;;;13.60;12.15;;;14.90;99.90;;;;;;4975352;28;20337;-78
2023/05/13 07:31:56;;;;;;;13.23;11.93;;;15.00;99.90;;;;;;4991267;28;20050;-78
2023/05/13 07:34:22;;;;;;;14.05;12.70;;;15.10;99.90;;;;;;4991045;28;20033;-78
2023/05/13 07:36:47;;;;;;;14.93;13.45;;;15.20;99.90;;;;;;4990778;28;20049;-78
2023/05/13 07:39:13;;;;;;;13.32;12.13;;;15.30;99.90;;;;;;4997920;28;20488;-78
2023/05/13 07:41:38;;;;;;;12.98;11.77;;;15.50;99.90;;;;;;4974996;28;20503;-78
2023/05/13 07:44:04;;;;;;;12.73;11.63;;;15.70;99.90;;;;;;4999111;28;20145;-77
2023/05/13 07:46:31;;;;;;;13.00;11.80;;;16.00;99.90;;;;;;4991229;28;20074;-78
2023/05/13 07:48:56;;;;;;;14.38;12.98;;;16.20;99.90;;;;;;4988984;28;20046;-77
2023/05/13 07:51:22;;;;;;;14.05;12.73;;;16.20;99.90;;;;;;4990406;28;20042;-78
2023/05/13 07:53:47;;;;;;;14.00;12.55;;;16.20;99.90;;;;;;5009385;28;20404;-78
2023/05/13 07:56:13;;;;;;;13.95;12.77;;;16.20;99.90;;;;;;5005471;28;20057;-79
2023/05/13 07:58:39;;;;;;;12.98;11.40;;;16.30;99.90;;;;;;4987322;28;20038;-78
2023/05/13 08:01:04;;;;;;;12.32;11.18;;;16.40;99.90;;;;;;5008802;28;20030;-78
2023/05/13 08:03:30;;;;;;;12.35;11.15;;;16.50;99.90;;;;;;5037144;22;20046;-78
2023/05/13 08:05:56;;;;;;;11.82;10.63;;;16.50;99.90;;;;;;5013453;28;21541;-78
2023/05/13 08:08:21;;;;;;;11.98;10.77;;;16.60;99.90;;;;;;5030795;28;20034;-78
2023/05/13 08:10:47;;;;;;;13.32;12.13;;;17.10;99.90;;;;;;5018299;28;20403;-78
2023/05/13 08:13:13;;;;;;;12.82;11.52;;;17.90;99.90;;;;;;5020323;28;20044;-78
2023/05/13 08:15:38;;;;;;;10.95;9.93;;;18.90;99.90;;;;;;5019577;28;20030;-78
2023/05/13 08:18:04;;;;;;;10.35;9.35;;;19.70;99.90;;;;;;4995098;28;20404;-77
2023/05/13 08:20:30;;;;;;;10.30;8.98;;;20.40;99.90;;;;;;5010432;28;20046;-77
2023/05/13 08:22:57;;;;;;;10.82;9.70;;;20.70;95.30;;;;;;5009526;28;20038;-77
2023/05/13 08:25:22;;;;;;;9.23;8.43;;;21.00;92.00;;;;;;5010661;28;20034;-77
2023/05/13 08:27:48;;;;;;;8.95;8.05;;;21.40;92.40;;;;;;4993622;28;20538;-77
2023/05/13 08:30:14;;;;;;;9.75;7.70;;;21.70;85.30;;;;;;5010361;28;20096;-77
2023/05/13 08:32:40;;;;;;;8.52;7.80;;;22.00;79.90;;;;;;5010251;28;20403;-77
2023/05/13 08:35:05;;;;;;;10.52;7.43;;;22.20;85.00;;;;;;5009538;28;20042;-78
2023/05/13 08:37:31;;;;;;;7.95;6.50;;;22.60;87.40;;;;;;5026366;28;20041;-78
2023/05/13 08:39:59;;;;;;;8.20;7.20;;;23.00;73.00;;;;;;5010492;28;20562;-77
2023/05/13 08:42:28;;;;;;;7.90;6.88;;;23.10;66.70;;;;;;4993781;28;20044;-77
2023/05/13 08:44:53;;;;;;;9.65;7.28;;;23.30;70.40;;;;;;5010497;28;20065;-77
2023/05/13 08:47:25;;;;;;;8.95;6.10;;;23.40;67.00;;;;;;5008753;28;20489;-78
2023/05/13 08:49:51;;;;;;;7.88;6.45;;;23.40;65.20;;;;;;5010029;28;20066;-77
2023/05/13 08:52:18;;;;;;;8.60;7.03;;;23.30;65.10;;;;;;4993720;28;20463;-77
2023/05/13 08:54:45;;;;;;;7.93;6.53;;;23.30;62.60;;;;;;5011814;28;20348;-77
2023/05/13 08:57:10;;;;;;;7.47;6.00;;;23.10;65.50;;;;;;5013639;28;20056;-78
2023/05/13 08:59:36;;;;;;;8.55;6.47;;;23.10;66.60;;;;;;5012780;28;20412;-77
2023/05/13 09:02:03;;;;;;;8.32;5.68;;;23.30;63.80;;;;;;5007114;28;20132;-77
2023/05/13 09:04:29;;;;;;;7.90;5.50;;;23.40;66.50;;;;;;5013792;28;20038;-77
2023/05/13 09:06:55;;;;;;;7.65;5.43;;;23.60;62.10;;;;;;5013262;28;20052;-78
2023/05/13 09:09:21;;;;;;;6.00;5.10;;;23.50;63.30;;;;;;4997059;28;20049;-78
2023/05/13 09:11:47;;;;;;;8.57;6.00;;;23.60;64.70;;;;;;5013301;28;20067;-78
2023/05/13 09:14:17;;;;;;;7.88;5.03;;;23.80;63.40;;;;;;5009134;28;20038;-77
2023/05/13 09:16:42;;;;;;;6.53;4.82;;;24.00;59.50;;;;;;5009695;28;20056;-77
2023/05/13 09:19:10;;;;;;;6.90;5.60;;;23.90;62.10;;;;;;5013383;28;20037;-78
2023/05/13 09:21:35;;;;;;;8.15;6.07;;;23.90;63.90;;;;;;5013325;28;20046;-78
2023/05/13 09:24:09;;;;;;;7.70;5.60;;;24.00;72.50;;;;;;4996889;28;20034;-77
2023/05/13 09:26:35;;;;;;;5.88;5.38;;;24.50;63.80;;;;;;5012999;28;20049;-77
2023/05/13 09:29:21;;;;;;;6.68;5.57;;;24.70;62.90;;;;;;4995959;28;20038;-77
2023/05/13 09:31:56;;;;;;;8.32;5.72;;;24.70;64.30;;;;;;4996656;28;20042;-77
2023/05/13 09:34:25;;;;;;;6.60;4.80;;;24.90;64.30;;;;;;5013197;28;20415;-78
2023/05/13 09:36:59;;;;;;;5.47;4.43;;;25.20;59.20;;;;;;5012682;28;20945;-77
2023/05/13 09:39:25;;;;;;;6.22;4.80;;;25.00;57.60;;;;;;5012297;28;20034;-77
2023/05/13 09:41:52;;;;;;;5.43;4.45;;;24.80;59.70;;;;;;5012911;28;20492;-78
2023/05/13 09:44:17;;;;;;;5.25;3.95;;;24.90;61.20;;;;;;5012067;28;20121;-77
2023/05/13 09:46:43;;;;;;;7.38;5.03;;;25.10;58.40;;;;;;5028859;28;20575;-78
2023/05/13 09:49:09;;;;;;;6.65;4.70;;;25.40;54.70;;;;;;5012609;28;20045;-78
2023/05/13 09:51:35;;;;;;;6.90;3.97;;;25.20;58.30;;;;;;5012843;28;20077;-77
2023/05/13 09:54:06;;;;;;;7.47;4.60;;;25.00;57.40;;;;;;5011906;28;20072;-78
2023/05/13 09:56:34;;;;;;;7.22;3.90;;;25.00;56.00;;;;;;5012134;28;20046;-78
2023/05/13 09:59:01;;;;;;;7.05;3.88;;;25.20;58.00;;;;;;5009309;28;20408;-77
2023/05/13 10:01:27;;;;;;;4.47;3.67;;;25.60;50.80;;;;;;5012594;28;20042;-77
2023/05/13 10:04:00;;;;;;;8.77;3.70;;;25.40;51.70;;;;;;4995054;28;20125;-77
2023/05/13 10:06:28;;;;;;;6.80;3.83;;;25.30;52.20;;;;;;4997999;28;20100;-78
2023/05/13 10:08:57;;;;;;;7.40;3.70;;;25.00;53.80;;;;;;5012226;28;20033;-78
2023/05/13 10:11:28;;;;;;;5.70;3.75;;;25.00;55.00;;;;;;5012265;28;20575;-77
2023/05/13 10:14:04;;;;;;;5.93;3.90;;;25.10;55.10;;;;;;5012148;28;20048;-77
2023/05/13 10:16:31;;;;;;;7.30;4.00;;;25.20;53.70;;;;;;5011837;28;20041;-77
2023/05/13 10:18:57;;;;;;;6.90;4.28;;;25.10;53.20;;;;;;5011240;28;20038;-78
2023/05/13 10:21:25;;;;;;;6.57;3.67;;;25.10;54.50;;;;;;5012018;28;20042;-78
2023/05/13 10:23:51;;;;;;;5.80;3.97;;;25.10;54.50;;;;;;5012280;28;20512;-77
2023/05/13 10:26:20;;;;;;;5.10;3.70;;;25.20;56.20;;;;;;5012121;28;20468;-77
2023/05/13 10:28:47;;;;;;;5.60;4.10;;;25.50;55.60;;;;;;5011945;28;20049;-78
2023/05/13 10:31:12;;;;;;;5.20;3.60;;;26.00;53.00;;;;;;5011893;28;20103;-77
2023/05/13 10:33:40;;;;;;;5.63;3.97;;;26.20;48.30;;;;;;5010795;28;20124;-77
2023/05/13 10:36:05;;;;;;;5.07;3.88;;;25.80;49.10;;;;;;5000212;28;20057;-77
2023/05/13 10:38:43;;;;;;;5.60;3.80;;;25.70;51.40;;;;;;5011714;28;20041;-77
2023/05/13 10:41:49;;;;;;;5.72;3.75;;;25.50;53.90;;;;;;5011615;28;20091;-77
2023/05/13 10:44:18;;;;;;;5.78;3.60;;;25.70;49.20;;;;;;4991747;28;20054;-78
2023/05/13 10:46:47;;;;;;;4.72;3.83;;;25.60;51.40;;;;;;5011431;28;20041;-77
2023/05/13 10:49:15;;;;;;;5.93;3.75;;;25.70;48.80;;;;;;5011732;28;20115;-77
2023/05/13 10:51:46;;;;;;;4.10;3.47;;;25.60;50.00;;;;;;5011699;28;20085;-77
2023/05/13 10:54:23;;;;;;;6.82;3.90;;;25.40;50.80;;;;;;5011486;28;20124;-78
2023/05/13 10:56:58;;;;;;;5.30;4.40;;;25.50;49.50;;;;;;5009329;28;20050;-77
2023/05/13 10:59:24;;;;;;;4.43;3.70;;;25.40;48.70;;;;;;5011580;28;20397;-78
2023/05/13 11:01:50;;;;;;;4.95;3.10;;;25.40;50.40;;;;;;5011241;28;20033;-77
2023/05/13 11:04:18;;;;;;;4.22;3.38;;;25.50;45.90;;;;;;4991335;28;20034;-77
2023/05/13 11:06:46;;;;;;;7.13;3.67;;;25.00;46.50;;;;;;4991577;28;20061;-77
2023/05/13 11:09:21;;;;;;;4.90;3.60;;;24.70;47.40;;;;;;4997978;28;20038;-77
2023/05/13 11:11:58;;;;;;;6.10;3.50;;;24.40;48.90;;;;;;5004854;28;20096;-77
2023/05/13 11:14:25;;;;;;;6.55;3.78;;;24.30;48.10;;;;;;5007875;28;20038;-76
2023/05/13 11:17:00;;;;;;;4.97;3.30;;;24.00;48.80;;;;;;4991006;28;20079;-77
2023/05/13 11:19:37;;;;;;;4.50;3.35;;;23.40;49.40;;;;;;4991496;28;20038;-77
2023/05/13 11:22:14;;;;;;;5.82;3.35;;;22.90;50.00;;;;;;4991725;28;20108;-77
2023/05/13 11:24:40;;;;;;;6.20;3.40;;;22.80;50.90;;;;;;5009616;28;20034;-78
2023/05/13 11:27:16;;;;;;;4.03;3.63;;;22.80;52.70;;;;;;5010702;28;20128;-78
2023/05/13 11:29:54;;;;;;;6.13;3.53;;;22.80;54.60;;;;;;4994634;28;20061;-78
2023/05/13 11:32:52;;;;;;;5.13;3.47;;;23.00;55.70;;;;;;5010932;28;20037;-77
2023/05/13 11:35:24;;;;;;;8.15;3.85;;;23.50;53.40;;;;;;5010839;28;20096;-78
2023/05/13 11:37:50;;;;;;;7.05;3.20;;;23.80;51.80;;;;;;5009777;28;20038;-78
2023/05/13 11:40:25;;;;;;;4.93;2.80;;;23.90;50.30;;;;;;4994447;28;20026;-78
2023/05/13 11:42:52;;;;;;;4.72;3.13;;;24.40;48.10;;;;;;5010958;28;20105;-77
2023/05/13 11:45:19;;;;;;;7.78;3.38;;;24.80;45.70;;;;;;5010753;28;20038;-78
2023/05/13 11:47:45;;;;;;;3.30;2.80;;;25.00;51.10;;;;;;5009916;28;20037;-78
2023/05/13 11:50:31;;;;;;;6.45;3.30;;;25.50;45.30;;;;;;5010730;28;20104;-78
2023/05/13 11:52:59;;;;;;;5.00;2.80;;;25.70;45.20;;;;;;5010713;28;20112;-78
2023/05/13 11:55:29;;;;;;;3.50;2.80;;;25.60;47.60;;;;;;5010254;28;20462;-78
2023/05/13 11:57:55;;;;;;;5.07;2.88;;;25.70;44.20;;;;;;4986983;28;20034;-78
2023/05/13 12:00:28;;;;;;;4.32;3.35;;;25.70;43.90;;;;;;5010467;28;20034;-78
2023/05/13 12:02:54;;;;;;;5.68;2.90;;;25.70;44.60;;;;;;5010654;28;20064;-77
2023/05/13 12:05:20;;;;;;;3.50;2.67;;;25.70;44.40;;;;;;5010690;28;20038;-78
2023/05/13 12:07:46;;;;;;;6.68;4.47;;;25.80;46.30;;;;;;5010402;28;20125;-78
2023/05/13 12:10:12;;;;;;;5.22;3.15;;;25.90;44.10;;;;;;4992274;28;20053;-78
2023/05/13 12:12:42;;;;;;;4.18;2.90;;;26.00;43.80;;;;;;5010098;28;20057;-78
2023/05/13 12:15:18;;;;;;;3.95;2.78;;;26.00;42.80;;;;;;5010376;28;20038;-78
2023/05/13 12:17:45;;;;;;;6.32;5.72;;;26.10;43.80;;;;;;5009469;28;20475;-78
2023/05/13 12:20:17;;;;;;;8.13;4.95;;;26.10;43.10;;;;;;5010300;28;20084;-78
2023/05/13 12:22:42;;;;;;;5.72;3.25;;;26.10;43.40;;;;;;5010712;28;20041;-78
2023/05/13 12:25:31;;;;;;;5.68;3.28;;;26.30;47.10;;;;;;5010336;28;20064;-77
2023/05/13 12:27:57;;;;;;;4.60;2.90;;;26.70;46.50;;;;;;5010485;28;20046;-78
2023/05/13 12:30:23;;;;;;;5.20;2.80;;;26.90;50.50;;;;;;5013210;28;20058;-78
2023/05/13 12:32:48;;;;;;;4.72;3.25;;;27.10;49.10;;;;;;5013369;28;20184;-78
2023/05/13 12:35:14;;;;;;;3.80;3.17;;;27.00;49.20;;;;;;5014066;28;20053;-78
2023/05/13 12:37:40;;;;;;;5.22;3.20;;;27.30;49.00;;;;;;5013745;28;20518;-78
2023/05/13 12:40:10;;;;;;;4.60;3.50;;;27.60;47.40;;;;;;5014380;28;20124;-78
2023/05/13 12:42:36;;;;;;;5.93;2.95;;;27.60;45.00;;;;;;5013967;28;20029;-78
2023/05/13 12:45:02;;;;;;;4.00;3.00;;;27.20;44.90;;;;;;5003970;28;20092;-78
2023/05/13 12:47:27;;;;;;;4.72;3.38;;;27.20;46.40;;;;;;5001104;28;20164;-78
2023/05/13 12:49:55;;;;;;;5.93;3.05;;;27.20;48.00;;;;;;5014353;28;20519;-77
2023/05/13 12:52:21;;;;;;;3.20;2.75;;;27.30;46.30;;;;;;5024610;28;20041;-76
2023/05/13 12:54:47;;;;;;;5.78;3.25;;;27.40;46.40;;;;;;5025344;28;20184;-77
2023/05/13 12:57:16;;;;;;;4.30;3.10;;;27.40;47.10;;;;;;5005617;28;20507;-78
2023/05/13 12:59:41;;;;;;;7.88;3.30;;;27.60;43.60;;;;;;5019618;28;20073;-78
2023/05/13 13:02:07;;;;;;;5.65;3.38;;;27.30;47.10;;;;;;5025693;28;20070;-78
2023/05/13 13:04:32;;;;;;;5.18;3.30;;;26.80;45.80;;;;;;4994124;28;20042;-77
2023/05/13 13:06:58;;;;;;;5.85;3.25;;;26.20;45.00;;;;;;4993855;28;20042;-77